sensor_id;sensor_type;location;lat;lon;timestamp;temperature;humidity
39525;DHT22;25203;50.754;6.978;2023-03-25T00:00:59;8.90;99.90
39525;DHT22;25203;50.754;6.978;2023-03-25T00:03:00;8.90;99.90
39525;DHT22;25203;50.754;6.978;2023-03-25T00:05:01;8.80;99.90
39525;DHT22;25203;50.754;6.978;2023-03-25T00:07:03;8.80;99.90
39525;DHT22;25203;50.754;6.978;2023-03-25T00:09:03;8.80;99.90
39525;DHT22;25203;50.754;6.978;2023-03-25T00:11:06;8.80;99.90
39525;DHT22;25203;50.754;6.978;2023-03-25T00:13:07;8.80;99.90
39525;DHT22;25203;50.754;6.978;2023-03-25T00:15:09;8.80;99.90
39525;DHT22;25203;50.754;6.978;2023-03-25T00:17:10;8.80;99.90
39525;DHT22;25203;50.754;6.978;2023-03-25T00:19:16;8.70;99.90
39525;DHT22;25203;50.754;6.978;2023-03-25T00:21:16;8.70;99.90
39525;DHT22;25203;50.754;6.978;2023-03-25T00:23:19;8.80;99.90
39525;DHT22;25203;50.754;6.978;2023-03-25T00:25:20;8.80;99.90
39525;DHT22;25203;50.754;6.978;2023-03-25T00:27:21;8.80;99.90
39525;DHT22;25203;50.754;6.978;2023-03-25T00:29:22;8.80;99.90
39525;DHT22;25203;50.754;6.978;2023-03-25T00:31:22;8.80;99.90
39525;DHT22;25203;50.754;6.978;2023-03-25T00:33:23;8.80;99.90
39525;DHT22;25203;50.754;6.978;2023-03-25T00:35:23;8.80;99.90
39525;DHT22;25203;50.754;6.978;2023-03-25T00:37:25;8.90;99.90
39525;DHT22;25203;50.754;6.978;2023-03-25T00:39:27;8.90;99.90
39525;DHT22;25203;50.754;6.978;2023-03-25T00:41:27;9.00;99.90
39525;DHT22;25203;50.754;6.978;2023-03-25T00:43:28;9.00;99.90
39525;DHT22;25203;50.754;6.978;2023-03-25T00:45:29;9.00;99.90
39525;DHT22;25203;50.754;6.978;2023-03-25T00:47:29;9.10;99.90
39525;DHT22;25203;50.754;6.978;2023-03-25T00:49:30;9.10;99.90
39525;DHT22;25203;50.754;6.978;2023-03-25T00:51:31;9.20;99.90
39525;DHT22;25203;50.754;6.978;2023-03-25T00:53:34;9.20;99.90
39525;DHT22;25203;50.754;6.978;2023-03-25T00:55:34;9.20;99.90
39525;DHT22;25203;50.754;6.978;2023-03-25T00:57:35;9.20;99.90
39525;DHT22;25203;50.754;6.978;2023-03-25T00:59:36;9.20;99.90
39525;DHT22;25203;50.754;6.978;2023-03-25T01:01:36;9.20;99.90
39525;DHT22;25203;50.754;6.978;2023-03-25T01:03:39;9.30;99.90
39525;DHT22;25203;50.754;6.978;2023-03-25T01:05:40;9.20;99.90
39525;DHT22;25203;50.754;6.978;2023-03-25T01:07:41;9.30;99.90
39525;DHT22;25203;50.754;6.978;2023-03-25T01:09:41;9.20;99.90
39525;DHT22;25203;50.754;6.978;2023-03-25T01:11:45;9.20;99.90
39525;DHT22;25203;50.754;6.978;2023-03-25T01:13:46;9.20;99.90
39525;DHT22;25203;50.754;6.978;2023-03-25T01:15:47;9.20;99.90
39525;DHT22;25203;50.754;6.978;2023-03-25T01:17:48;9.10;99.90
39525;DHT22;25203;50.754;6.978;2023-03-25T01:19:48;9.10;99.90
39525;DHT22;25203;50.754;6.978;2023-03-25T01:21:50;9.10;99.90
39525;DHT22;25203;50.754;6.978;2023-03-25T01:23:50;9.10;99.90
39525;DHT22;25203;50.754;6.978;2023-03-25T01:25:51;9.00;99.90
39525;DHT22;25203;50.754;6.978;2023-03-25T01:27:51;9.00;99.90
39525;DHT22;25203;50.754;6.978;2023-03-25T01:29:52;9.00;99.90
39525;DHT22;25203;50.754;6.978;2023-03-25T01:31:54;9.00;99.90
39525;DHT22;25203;50.754;6.978;2023-03-25T01:33:58;9.10;99.90
39525;DHT22;25203;50.754;6.978;2023-03-25T01:35:59;9.10;99.90
39525;DHT22;25203;50.754;6.978;2023-03-25T01:38:00;9.10;99.90
39525;DHT22;25203;50.754;6.978;2023-03-25T01:40:01;9.20;99.90
39525;DHT22;25203;50.754;6.978;2023-03-25T01:42:04;9.20;99.90
39525;DHT22;25203;50.754;6.978;2023-03-25T01:46:17;9.20;99.90
39525;DHT22;25203;50.754;6.978;2023-03-25T01:48:38;9.20;99.90
39525;DHT22;25203;50.754;6.978;2023-03-25T01:50:43;9.10;99.90
39525;DHT22;25203;50.754;6.978;2023-03-25T01:52:47;9.10;99.90
39525;DHT22;25203;50.754;6.978;2023-03-25T01:54:52;9.20;99.90
39525;DHT22;25203;50.754;6.978;2023-03-25T01:56:53;9.20;99.90
39525;DHT22;25203;50.754;6.978;2023-03-25T01:58:56;9.20;99.90
39525;DHT22;25203;50.754;6.978;2023-03-25T02:00:57;9.20;99.90
39525;DHT22;25203;50.754;6.978;2023-03-25T02:03:01;9.20;99.90
39525;DHT22;25203;50.754;6.978;2023-03-25T02:05:08;9.20;99.90
39525;DHT22;25203;50.754;6.978;2023-03-25T02:07:11;9.20;99.90
39525;DHT22;25203;50.754;6.978;2023-03-25T02:09:17;9.20;99.90
39525;DHT22;25203;50.754;6.978;2023-03-25T02:11:18;9.20;99.90
39525;DHT22;25203;50.754;6.978;2023-03-25T02:13:19;9.20;99.90
39525;DHT22;25203;50.754;6.978;2023-03-25T02:15:20;9.20;99.90
39525;DHT22;25203;50.754;6.978;2023-03-25T02:27:08;9.20;99.90
39525;DHT22;25203;50.754;6.978;2023-03-25T02:38:55;9.20;99.90
39525;DHT22;25203;50.754;6.978;2023-03-25T02:45:45;9.10;99.90
39525;DHT22;25203;50.754;6.978;2023-03-25T02:47:50;9.20;99.90
39525;DHT22;25203;50.754;6.978;2023-03-25T02:50:08;9.20;99.90
39525;DHT22;25203;50.754;6.978;2023-03-25T02:52:15;9.10;99.90
39525;DHT22;25203;50.754;6.978;2023-03-25T02:54:18;9.10;99.90
39525;DHT22;25203;50.754;6.978;2023-03-25T02:56:21;9.10;99.90
39525;DHT22;25203;50.754;6.978;2023-03-25T02:58:26;9.10;99.90
39525;DHT22;25203;50.754;6.978;2023-03-25T03:00:28;9.00;99.90
39525;DHT22;25203;50.754;6.978;2023-03-25T03:02:29;9.10;99.90
39525;DHT22;25203;50.754;6.978;2023-03-25T03:04:31;9.10;99.90
39525;DHT22;25203;50.754;6.978;2023-03-25T03:06:39;9.10;99.90
39525;DHT22;25203;50.754;6.978;2023-03-25T03:10:56;9.10;99.90
39525;DHT22;25203;50.754;6.978;2023-03-25T03:13:04;9.10;99.90
39525;DHT22;25203;50.754;6.978;2023-03-25T03:15:22;9.10;99.90
39525;DHT22;25203;50.754;6.978;2023-03-25T03:19:43;9.10;99.90
39525;DHT22;25203;50.754;6.978;2023-03-25T03:29:10;9.20;99.90
39525;DHT22;25203;50.754;6.978;2023-03-25T03:31:19;9.20;99.90
39525;DHT22;25203;50.754;6.978;2023-03-25T03:34:00;9.20;99.90
39525;DHT22;25203;50.754;6.978;2023-03-25T03:36:09;9.20;99.90
39525;DHT22;25203;50.754;6.978;2023-03-25T03:38:14;9.10;99.90
39525;DHT22;25203;50.754;6.978;2023-03-25T03:40:18;9.20;99.90
39525;DHT22;25203;50.754;6.978;2023-03-25T03:42:33;9.20;99.90
39525;DHT22;25203;50.754;6.978;2023-03-25T03:44:38;9.10;99.90
39525;DHT22;25203;50.754;6.978;2023-03-25T03:46:50;9.10;99.90
39525;DHT22;25203;50.754;6.978;2023-03-25T03:48:56;9.00;99.90
39525;DHT22;25203;50.754;6.978;2023-03-25T03:51:19;9.00;99.90
39525;DHT22;25203;50.754;6.978;2023-03-25T03:53:31;9.00;99.90
39525;DHT22;25203;50.754;6.978;2023-03-25T03:55:41;8.90;99.90
39525;DHT22;25203;50.754;6.978;2023-03-25T03:57:48;8.90;99.90
39525;DHT22;25203;50.754;6.978;2023-03-25T04:00:04;8.90;99.90
39525;DHT22;25203;50.754;6.978;2023-03-25T04:02:31;8.90;99.90
39525;DHT22;25203;50.754;6.978;2023-03-25T04:04:34;8.90;99.90
39525;DHT22;25203;50.754;6.978;2023-03-25T04:06:46;8.90;99.90
39525;DHT22;25203;50.754;6.978;2023-03-25T04:09:24;8.90;99.90
39525;DHT22;25203;50.754;6.978;2023-03-25T04:11:34;8.90;99.90
39525;DHT22;25203;50.754;6.978;2023-03-25T04:13:40;8.90;99.90
39525;DHT22;25203;50.754;6.978;2023-03-25T04:15:41;8.80;99.90
39525;DHT22;25203;50.754;6.978;2023-03-25T04:17:43;8.80;99.90
39525;DHT22;25203;50.754;6.978;2023-03-25T04:19:43;8.80;99.90
39525;DHT22;25203;50.754;6.978;2023-03-25T04:21:48;8.80;99.90
39525;DHT22;25203;50.754;6.978;2023-03-25T04:23:48;8.80;99.90
39525;DHT22;25203;50.754;6.978;2023-03-25T04:25:49;8.80;99.90
39525;DHT22;25203;50.754;6.978;2023-03-25T04:27:52;8.70;99.90
39525;DHT22;25203;50.754;6.978;2023-03-25T04:29:58;8.80;99.90
39525;DHT22;25203;50.754;6.978;2023-03-25T04:32:01;8.80;99.90
39525;DHT22;25203;50.754;6.978;2023-03-25T04:34:02;8.90;99.90
39525;DHT22;25203;50.754;6.978;2023-03-25T04:36:04;8.90;99.90
39525;DHT22;25203;50.754;6.978;2023-03-25T04:38:06;8.90;99.90
39525;DHT22;25203;50.754;6.978;2023-03-25T04:40:07;8.90;99.90
39525;DHT22;25203;50.754;6.978;2023-03-25T04:42:08;8.80;99.90
39525;DHT22;25203;50.754;6.978;2023-03-25T04:44:13;8.80;99.90
39525;DHT22;25203;50.754;6.978;2023-03-25T04:46:14;8.80;99.90
39525;DHT22;25203;50.754;6.978;2023-03-25T04:48:28;8.80;99.90
39525;DHT22;25203;50.754;6.978;2023-03-25T04:50:32;8.80;99.90
39525;DHT22;25203;50.754;6.978;2023-03-25T04:52:33;8.80;99.90
39525;DHT22;25203;50.754;6.978;2023-03-25T04:54:34;8.80;99.90
39525;DHT22;25203;50.754;6.978;2023-03-25T04:56:35;8.80;99.90
39525;DHT22;25203;50.754;6.978;2023-03-25T04:58:36;8.80;99.90
39525;DHT22;25203;50.754;6.978;2023-03-25T05:00:36;8.80;99.90
39525;DHT22;25203;50.754;6.978;2023-03-25T05:02:42;8.80;99.90
39525;DHT22;25203;50.754;6.978;2023-03-25T05:04:45;8.80;99.90
39525;DHT22;25203;50.754;6.978;2023-03-25T05:06:48;8.80;99.90
39525;DHT22;25203;50.754;6.978;2023-03-25T05:08:50;8.80;99.90
39525;DHT22;25203;50.754;6.978;2023-03-25T05:10:51;8.80;99.90
39525;DHT22;25203;50.754;6.978;2023-03-25T05:13:04;8.80;99.90
39525;DHT22;25203;50.754;6.978;2023-03-25T05:15:06;8.80;99.90
39525;DHT22;25203;50.754;6.978;2023-03-25T05:17:07;8.80;99.90
39525;DHT22;25203;50.754;6.978;2023-03-25T05:19:08;8.80;99.90
39525;DHT22;25203;50.754;6.978;2023-03-25T05:21:08;8.80;99.90
39525;DHT22;25203;50.754;6.978;2023-03-25T05:23:12;8.80;99.90
39525;DHT22;25203;50.754;6.978;2023-03-25T05:25:15;8.70;99.90
39525;DHT22;25203;50.754;6.978;2023-03-25T05:27:20;8.70;99.90
39525;DHT22;25203;50.754;6.978;2023-03-25T05:29:21;8.70;99.90
39525;DHT22;25203;50.754;6.978;2023-03-25T05:31:22;8.70;99.90
39525;DHT22;25203;50.754;6.978;2023-03-25T05:33:22;8.70;99.90
39525;DHT22;25203;50.754;6.978;2023-03-25T05:35:23;8.70;99.90
39525;DHT22;25203;50.754;6.978;2023-03-25T05:37:26;8.70;99.90
39525;DHT22;25203;50.754;6.978;2023-03-25T05:39:26;8.60;99.90
39525;DHT22;25203;50.754;6.978;2023-03-25T05:41:27;8.60;99.90
39525;DHT22;25203;50.754;6.978;2023-03-25T05:43:38;8.60;99.90
39525;DHT22;25203;50.754;6.978;2023-03-25T05:45:38;8.70;99.90
39525;DHT22;25203;50.754;6.978;2023-03-25T05:47:39;8.70;99.90
39525;DHT22;25203;50.754;6.978;2023-03-25T05:49:40;8.80;99.90
39525;DHT22;25203;50.754;6.978;2023-03-25T05:51:41;8.80;99.90
39525;DHT22;25203;50.754;6.978;2023-03-25T05:53:45;8.80;99.90
39525;DHT22;25203;50.754;6.978;2023-03-25T05:55:49;8.80;99.90
39525;DHT22;25203;50.754;6.978;2023-03-25T05:57:51;8.80;99.90
39525;DHT22;25203;50.754;6.978;2023-03-25T05:59:51;8.80;99.90
39525;DHT22;25203;50.754;6.978;2023-03-25T06:01:52;8.90;99.90
39525;DHT22;25203;50.754;6.978;2023-03-25T06:03:53;8.90;99.90
39525;DHT22;25203;50.754;6.978;2023-03-25T06:05:53;9.00;99.90
39525;DHT22;25203;50.754;6.978;2023-03-25T06:07:54;9.00;99.90
39525;DHT22;25203;50.754;6.978;2023-03-25T06:09:55;9.00;99.90
39525;DHT22;25203;50.754;6.978;2023-03-25T06:11:56;9.00;99.90
39525;DHT22;25203;50.754;6.978;2023-03-25T06:13:56;9.00;99.90
39525;DHT22;25203;50.754;6.978;2023-03-25T06:15:57;9.00;99.90
39525;DHT22;25203;50.754;6.978;2023-03-25T06:17:59;9.00;99.90
39525;DHT22;25203;50.754;6.978;2023-03-25T06:20:00;9.00;99.90
39525;DHT22;25203;50.754;6.978;2023-03-25T06:22:01;9.00;99.90
39525;DHT22;25203;50.754;6.978;2023-03-25T06:24:03;9.10;99.90
39525;DHT22;25203;50.754;6.978;2023-03-25T06:26:04;9.10;99.90
39525;DHT22;25203;50.754;6.978;2023-03-25T06:28:04;9.20;99.90
39525;DHT22;25203;50.754;6.978;2023-03-25T06:30:13;9.30;99.90
39525;DHT22;25203;50.754;6.978;2023-03-25T06:32:13;9.30;99.90
39525;DHT22;25203;50.754;6.978;2023-03-25T06:34:15;9.30;99.90
39525;DHT22;25203;50.754;6.978;2023-03-25T06:36:16;9.40;99.90
39525;DHT22;25203;50.754;6.978;2023-03-25T06:38:18;9.50;99.90
39525;DHT22;25203;50.754;6.978;2023-03-25T06:40:19;9.50;99.90
39525;DHT22;25203;50.754;6.978;2023-03-25T06:42:22;9.60;99.90
39525;DHT22;25203;50.754;6.978;2023-03-25T06:44:23;9.60;99.90
39525;DHT22;25203;50.754;6.978;2023-03-25T06:46:24;9.60;99.90
39525;DHT22;25203;50.754;6.978;2023-03-25T06:48:24;9.60;99.90
39525;DHT22;25203;50.754;6.978;2023-03-25T06:50:25;9.60;99.90
39525;DHT22;25203;50.754;6.978;2023-03-25T06:52:26;9.50;99.90
39525;DHT22;25203;50.754;6.978;2023-03-25T06:54:26;9.50;99.90
39525;DHT22;25203;50.754;6.978;2023-03-25T06:56:27;9.50;99.90
39525;DHT22;25203;50.754;6.978;2023-03-25T06:58:28;9.50;99.90
39525;DHT22;25203;50.754;6.978;2023-03-25T07:00:33;9.50;99.90
39525;DHT22;25203;50.754;6.978;2023-03-25T07:02:34;9.30;99.90
39525;DHT22;25203;50.754;6.978;2023-03-25T07:04:35;9.10;99.90
39525;DHT22;25203;50.754;6.978;2023-03-25T07:06:35;8.90;99.90
39525;DHT22;25203;50.754;6.978;2023-03-25T07:08:36;8.80;99.90
39525;DHT22;25203;50.754;6.978;2023-03-25T07:10:37;8.60;99.90
39525;DHT22;25203;50.754;6.978;2023-03-25T07:12:37;8.50;99.90
39525;DHT22;25203;50.754;6.978;2023-03-25T07:14:38;8.40;99.90
39525;DHT22;25203;50.754;6.978;2023-03-25T07:16:38;8.40;99.90
39525;DHT22;25203;50.754;6.978;2023-03-25T07:18:39;8.40;99.90
39525;DHT22;25203;50.754;6.978;2023-03-25T07:20:40;8.40;99.90
39525;DHT22;25203;50.754;6.978;2023-03-25T07:22:42;8.40;99.90
39525;DHT22;25203;50.754;6.978;2023-03-25T07:24:43;8.30;99.90
39525;DHT22;25203;50.754;6.978;2023-03-25T07:26:44;8.30;99.90
39525;DHT22;25203;50.754;6.978;2023-03-25T07:28:44;8.40;99.90
39525;DHT22;25203;50.754;6.978;2023-03-25T07:30:47;8.40;99.90
39525;DHT22;25203;50.754;6.978;2023-03-25T07:32:47;8.40;99.90
39525;DHT22;25203;50.754;6.978;2023-03-25T07:34:48;8.40;99.90
39525;DHT22;25203;50.754;6.978;2023-03-25T07:36:49;8.40;99.90
39525;DHT22;25203;50.754;6.978;2023-03-25T07:38:49;8.30;99.90
39525;DHT22;25203;50.754;6.978;2023-03-25T07:40:50;8.40;99.90
39525;DHT22;25203;50.754;6.978;2023-03-25T07:42:51;8.50;99.90
39525;DHT22;25203;50.754;6.978;2023-03-25T07:44:51;8.50;99.90
39525;DHT22;25203;50.754;6.978;2023-03-25T07:46:52;8.50;99.90
39525;DHT22;25203;50.754;6.978;2023-03-25T07:48:53;8.40;99.90
39525;DHT22;25203;50.754;6.978;2023-03-25T07:50:53;8.40;99.90
39525;DHT22;25203;50.754;6.978;2023-03-25T07:52:54;8.30;99.90
39525;DHT22;25203;50.754;6.978;2023-03-25T07:54:55;8.30;99.90
39525;DHT22;25203;50.754;6.978;2023-03-25T07:56:55;8.30;99.90
39525;DHT22;25203;50.754;6.978;2023-03-25T07:58:56;8.30;99.90
39525;DHT22;25203;50.754;6.978;2023-03-25T08:00:57;8.30;99.90
39525;DHT22;25203;50.754;6.978;2023-03-25T08:02:58;8.40;99.90
39525;DHT22;25203;50.754;6.978;2023-03-25T08:04:58;8.40;99.90
39525;DHT22;25203;50.754;6.978;2023-03-25T08:06:59;8.30;99.90
39525;DHT22;25203;50.754;6.978;2023-03-25T08:09:00;8.30;99.90
39525;DHT22;25203;50.754;6.978;2023-03-25T08:11:00;8.20;99.90
39525;DHT22;25203;50.754;6.978;2023-03-25T08:13:01;8.20;99.90
39525;DHT22;25203;50.754;6.978;2023-03-25T08:15:02;8.30;99.90
39525;DHT22;25203;50.754;6.978;2023-03-25T08:17:06;8.30;99.90
39525;DHT22;25203;50.754;6.978;2023-03-25T08:19:07;8.40;99.90
39525;DHT22;25203;50.754;6.978;2023-03-25T08:21:07;8.40;99.90
39525;DHT22;25203;50.754;6.978;2023-03-25T08:23:09;8.50;99.90
39525;DHT22;25203;50.754;6.978;2023-03-25T08:25:10;8.60;99.90
39525;DHT22;25203;50.754;6.978;2023-03-25T08:27:10;8.80;99.90
39525;DHT22;25203;50.754;6.978;2023-03-25T08:29:11;8.80;99.90
39525;DHT22;25203;50.754;6.978;2023-03-25T08:31:11;9.60;99.90
39525;DHT22;25203;50.754;6.978;2023-03-25T08:33:12;10.80;99.90
39525;DHT22;25203;50.754;6.978;2023-03-25T08:35:13;11.80;99.90
39525;DHT22;25203;50.754;6.978;2023-03-25T08:37:14;12.60;99.90
39525;DHT22;25203;50.754;6.978;2023-03-25T08:39:15;13.30;98.30
39525;DHT22;25203;50.754;6.978;2023-03-25T08:41:16;13.30;98.10
39525;DHT22;25203;50.754;6.978;2023-03-25T08:43:17;13.20;97.70
39525;DHT22;25203;50.754;6.978;2023-03-25T08:45:17;13.00;97.30
39525;DHT22;25203;50.754;6.978;2023-03-25T08:47:18;12.10;98.20
39525;DHT22;25203;50.754;6.978;2023-03-25T08:49:19;11.30;99.90
39525;DHT22;25203;50.754;6.978;2023-03-25T08:51:19;11.60;99.90
39525;DHT22;25203;50.754;6.978;2023-03-25T08:53:21;12.20;99.90
39525;DHT22;25203;50.754;6.978;2023-03-25T08:55:21;12.70;99.70
39525;DHT22;25203;50.754;6.978;2023-03-25T08:57:22;13.00;98.30
39525;DHT22;25203;50.754;6.978;2023-03-25T08:59:23;13.80;97.10
39525;DHT22;25203;50.754;6.978;2023-03-25T09:01:23;14.40;95.40
39525;DHT22;25203;50.754;6.978;2023-03-25T09:03:26;13.90;95.20
39525;DHT22;25203;50.754;6.978;2023-03-25T09:05:26;13.20;95.50
39525;DHT22;25203;50.754;6.978;2023-03-25T09:07:27;12.20;97.60
39525;DHT22;25203;50.754;6.978;2023-03-25T09:09:29;11.50;99.60
39525;DHT22;25203;50.754;6.978;2023-03-25T09:11:30;11.20;99.30
39525;DHT22;25203;50.754;6.978;2023-03-25T09:13:30;11.20;99.90
39525;DHT22;25203;50.754;6.978;2023-03-25T09:15:31;11.50;99.90
39525;DHT22;25203;50.754;6.978;2023-03-25T09:17:32;11.70;98.50
39525;DHT22;25203;50.754;6.978;2023-03-25T09:19:33;11.80;99.40
39525;DHT22;25203;50.754;6.978;2023-03-25T09:21:34;12.00;98.20
39525;DHT22;25203;50.754;6.978;2023-03-25T09:23:35;11.70;97.50
39525;DHT22;25203;50.754;6.978;2023-03-25T09:25:36;11.70;97.30
39525;DHT22;25203;50.754;6.978;2023-03-25T09:27:37;11.70;98.90
39525;DHT22;25203;50.754;6.978;2023-03-25T09:29:37;11.90;98.40
39525;DHT22;25203;50.754;6.978;2023-03-25T09:31:38;12.60;97.70
39525;DHT22;25203;50.754;6.978;2023-03-25T09:33:39;13.70;95.30
39525;DHT22;25203;50.754;6.978;2023-03-25T09:35:40;14.20;95.40
39525;DHT22;25203;50.754;6.978;2023-03-25T09:37:40;13.60;94.30
39525;DHT22;25203;50.754;6.978;2023-03-25T09:39:42;13.00;95.50
39525;DHT22;25203;50.754;6.978;2023-03-25T09:42:23;12.40;95.60
39525;DHT22;25203;50.754;6.978;2023-03-25T09:44:29;12.00;97.10
39525;DHT22;25203;50.754;6.978;2023-03-25T09:46:30;12.00;97.00
39525;DHT22;25203;50.754;6.978;2023-03-25T09:48:33;11.90;97.60
39525;DHT22;25203;50.754;6.978;2023-03-25T09:50:36;11.70;97.20
39525;DHT22;25203;50.754;6.978;2023-03-25T09:55:03;11.30;98.70
39525;DHT22;25203;50.754;6.978;2023-03-25T09:57:09;11.30;98.80
39525;DHT22;25203;50.754;6.978;2023-03-25T09:59:18;11.30;98.60
39525;DHT22;25203;50.754;6.978;2023-03-25T10:01:29;11.20;98.50
39525;DHT22;25203;50.754;6.978;2023-03-25T10:03:46;11.60;97.70
39525;DHT22;25203;50.754;6.978;2023-03-25T10:06:17;12.50;96.60
39525;DHT22;25203;50.754;6.978;2023-03-25T10:12:41;13.10;94.90
39525;DHT22;25203;50.754;6.978;2023-03-25T10:19:40;12.40;97.10
39525;DHT22;25203;50.754;6.978;2023-03-25T10:21:52;11.80;99.10
39525;DHT22;25203;50.754;6.978;2023-03-25T10:26:14;11.10;99.40
39525;DHT22;25203;50.754;6.978;2023-03-25T10:28:27;11.00;99.90
39525;DHT22;25203;50.754;6.978;2023-03-25T10:30:34;10.80;99.90
39525;DHT22;25203;50.754;6.978;2023-03-25T10:32:40;11.60;99.90
39525;DHT22;25203;50.754;6.978;2023-03-25T10:34:48;12.70;99.90
39525;DHT22;25203;50.754;6.978;2023-03-25T10:36:53;13.40;96.40
39525;DHT22;25203;50.754;6.978;2023-03-25T10:38:58;13.70;96.60
39525;DHT22;25203;50.754;6.978;2023-03-25T10:45:24;13.90;95.70
39525;DHT22;25203;50.754;6.978;2023-03-25T10:47:32;13.70;95.40
39525;DHT22;25203;50.754;6.978;2023-03-25T10:49:36;13.90;94.80
39525;DHT22;25203;50.754;6.978;2023-03-25T10:51:39;14.30;95.60
39525;DHT22;25203;50.754;6.978;2023-03-25T10:53:41;14.60;95.30
39525;DHT22;25203;50.754;6.978;2023-03-25T12:24:39;13.20;94.10
39525;DHT22;25203;50.754;6.978;2023-03-25T12:26:58;13.60;95.00
39525;DHT22;25203;50.754;6.978;2023-03-25T12:31:46;13.30;95.10
39525;DHT22;25203;50.754;6.978;2023-03-25T12:34:56;13.20;94.50
39525;DHT22;25203;50.754;6.978;2023-03-25T12:37:02;13.30;95.70
39525;DHT22;25203;50.754;6.978;2023-03-25T12:44:17;13.60;94.70
39525;DHT22;25203;50.754;6.978;2023-03-25T12:55:22;13.30;92.90
39525;DHT22;25203;50.754;6.978;2023-03-25T12:57:50;13.10;93.70
39525;DHT22;25203;50.754;6.978;2023-03-25T13:02:30;13.10;93.80
39525;DHT22;25203;50.754;6.978;2023-03-25T13:07:03;12.90;94.00
39525;DHT22;25203;50.754;6.978;2023-03-25T13:11:13;13.10;94.50
39525;DHT22;25203;50.754;6.978;2023-03-25T13:13:23;13.20;94.50
39525;DHT22;25203;50.754;6.978;2023-03-25T13:15:31;13.30;93.70
39525;DHT22;25203;50.754;6.978;2023-03-25T13:20:11;13.70;92.80
39525;DHT22;25203;50.754;6.978;2023-03-25T13:22:33;13.60;92.80
39525;DHT22;25203;50.754;6.978;2023-03-25T13:24:38;13.80;93.40
39525;DHT22;25203;50.754;6.978;2023-03-25T13:26:44;13.80;92.60
39525;DHT22;25203;50.754;6.978;2023-03-25T13:29:01;13.70;92.80
39525;DHT22;25203;50.754;6.978;2023-03-25T13:31:05;13.60;93.30
39525;DHT22;25203;50.754;6.978;2023-03-25T13:35:44;13.70;92.00
39525;DHT22;25203;50.754;6.978;2023-03-25T13:37:52;13.70;90.40
39525;DHT22;25203;50.754;6.978;2023-03-25T13:42:23;13.30;89.80
39525;DHT22;25203;50.754;6.978;2023-03-25T13:44:33;13.10;90.50
39525;DHT22;25203;50.754;6.978;2023-03-25T13:47:05;13.10;91.00
39525;DHT22;25203;50.754;6.978;2023-03-25T13:49:31;13.10;90.90
39525;DHT22;25203;50.754;6.978;2023-03-25T13:51:33;13.30;91.40
39525;DHT22;25203;50.754;6.978;2023-03-25T13:58:17;12.90;91.60
39525;DHT22;25203;50.754;6.978;2023-03-25T14:03:21;12.70;92.00
39525;DHT22;25203;50.754;6.978;2023-03-25T14:05:57;12.70;92.80
39525;DHT22;25203;50.754;6.978;2023-03-25T14:11:00;12.60;92.70
39525;DHT22;25203;50.754;6.978;2023-03-25T14:13:18;12.20;94.50
39525;DHT22;25203;50.754;6.978;2023-03-25T14:15:25;11.60;96.40
39525;DHT22;25203;50.754;6.978;2023-03-25T14:17:27;10.60;99.90
39525;DHT22;25203;50.754;6.978;2023-03-25T14:19:34;9.60;99.90
39525;DHT22;25203;50.754;6.978;2023-03-25T14:21:41;9.20;99.90
39525;DHT22;25203;50.754;6.978;2023-03-25T14:23:42;9.10;99.90
39525;DHT22;25203;50.754;6.978;2023-03-25T14:25:46;9.00;99.90
39525;DHT22;25203;50.754;6.978;2023-03-25T14:27:49;9.00;99.90
39525;DHT22;25203;50.754;6.978;2023-03-25T14:30:00;9.10;99.90
39525;DHT22;25203;50.754;6.978;2023-03-25T14:36:07;9.50;99.90
39525;DHT22;25203;50.754;6.978;2023-03-25T14:42:41;10.10;99.90
39525;DHT22;25203;50.754;6.978;2023-03-25T14:44:43;10.60;99.90
39525;DHT22;25203;50.754;6.978;2023-03-25T14:46:58;11.00;99.90
39525;DHT22;25203;50.754;6.978;2023-03-25T14:53:26;11.70;99.90
39525;DHT22;25203;50.754;6.978;2023-03-25T14:55:33;11.80;99.90
39525;DHT22;25203;50.754;6.978;2023-03-25T14:57:40;11.90;99.90
39525;DHT22;25203;50.754;6.978;2023-03-25T15:01:44;11.90;99.90
39525;DHT22;25203;50.754;6.978;2023-03-25T15:03:46;12.00;99.90
39525;DHT22;25203;50.754;6.978;2023-03-25T15:05:55;12.10;99.90
39525;DHT22;25203;50.754;6.978;2023-03-25T15:07:58;12.00;99.90
39525;DHT22;25203;50.754;6.978;2023-03-25T15:10:01;11.80;99.90
39525;DHT22;25203;50.754;6.978;2023-03-25T15:12:03;11.70;99.90
39525;DHT22;25203;50.754;6.978;2023-03-25T15:14:15;11.70;99.90
39525;DHT22;25203;50.754;6.978;2023-03-25T15:20:48;11.80;99.90
39525;DHT22;25203;50.754;6.978;2023-03-25T15:25:42;12.20;99.90
39525;DHT22;25203;50.754;6.978;2023-03-25T15:28:06;12.70;99.90
39525;DHT22;25203;50.754;6.978;2023-03-25T15:42:27;13.00;99.00
39525;DHT22;25203;50.754;6.978;2023-03-25T15:56:18;12.50;99.10
39525;DHT22;25203;50.754;6.978;2023-03-25T15:58:29;12.80;99.10
39525;DHT22;25203;50.754;6.978;2023-03-25T16:00:37;13.00;98.30
39525;DHT22;25203;50.754;6.978;2023-03-25T16:02:46;13.20;98.60
39525;DHT22;25203;50.754;6.978;2023-03-25T16:04:48;13.40;98.10
39525;DHT22;25203;50.754;6.978;2023-03-25T16:06:51;13.60;96.50
39525;DHT22;25203;50.754;6.978;2023-03-25T16:08:54;13.70;96.70
39525;DHT22;25203;50.754;6.978;2023-03-25T16:11:33;13.60;97.40
39525;DHT22;25203;50.754;6.978;2023-03-25T16:13:32;13.30;97.40
39525;DHT22;25203;50.754;6.978;2023-03-25T16:15:34;13.00;98.00
39525;DHT22;25203;50.754;6.978;2023-03-25T16:17:36;12.80;97.80
39525;DHT22;25203;50.754;6.978;2023-03-25T16:19:44;12.70;97.60
39525;DHT22;25203;50.754;6.978;2023-03-25T16:21:50;12.50;98.30
39525;DHT22;25203;50.754;6.978;2023-03-25T16:23:52;12.50;98.10
39525;DHT22;25203;50.754;6.978;2023-03-25T16:25:54;12.40;98.40
39525;DHT22;25203;50.754;6.978;2023-03-25T16:27:56;12.40;98.30
39525;DHT22;25203;50.754;6.978;2023-03-25T16:29:57;12.50;97.80
39525;DHT22;25203;50.754;6.978;2023-03-25T16:32:00;12.90;96.80
39525;DHT22;25203;50.754;6.978;2023-03-25T16:34:01;13.00;96.60
39525;DHT22;25203;50.754;6.978;2023-03-25T16:36:04;13.10;96.50
39525;DHT22;25203;50.754;6.978;2023-03-25T16:38:11;13.20;95.70
39525;DHT22;25203;50.754;6.978;2023-03-25T16:40:18;13.30;95.50
39525;DHT22;25203;50.754;6.978;2023-03-25T16:42:26;13.30;95.60
39525;DHT22;25203;50.754;6.978;2023-03-25T16:44:27;13.50;95.60
39525;DHT22;25203;50.754;6.978;2023-03-25T16:46:28;13.40;95.50
39525;DHT22;25203;50.754;6.978;2023-03-25T16:50:31;12.70;95.70
39525;DHT22;25203;50.754;6.978;2023-03-25T16:52:32;12.50;96.00
39525;DHT22;25203;50.754;6.978;2023-03-25T16:54:37;12.30;96.20
39525;DHT22;25203;50.754;6.978;2023-03-25T16:56:42;12.30;96.60
39525;DHT22;25203;50.754;6.978;2023-03-25T16:58:55;12.20;96.60
39525;DHT22;25203;50.754;6.978;2023-03-25T17:00:59;12.10;97.00
39525;DHT22;25203;50.754;6.978;2023-03-25T17:03:00;12.10;96.60
39525;DHT22;25203;50.754;6.978;2023-03-25T17:05:23;12.10;96.10
39525;DHT22;25203;50.754;6.978;2023-03-25T17:07:26;12.10;96.60
39525;DHT22;25203;50.754;6.978;2023-03-25T17:09:29;12.10;96.30